createdAt,value
2019-02-28T00:01:00.700Z,8.80
2019-02-28T00:03:29.260Z,9.30
2019-02-28T00:05:57.730Z,9.33
2019-02-28T00:08:26.203Z,9.70
2019-02-28T00:10:54.695Z,9.87
2019-02-28T00:13:23.177Z,9.37
2019-02-28T00:15:51.707Z,8.80
2019-02-28T00:18:20.175Z,10.37
2019-02-28T00:20:48.636Z,11.73
2019-02-28T00:23:19.274Z,10.13
2019-02-28T00:25:47.308Z,11.43
2019-02-28T00:28:15.866Z,12.03
2019-02-28T00:30:44.334Z,10.80
2019-02-28T00:33:12.802Z,9.97
2019-02-28T00:35:44.624Z,9.93
2019-02-28T00:38:11.532Z,10.27
2019-02-28T00:40:40.108Z,10.67
2019-02-28T00:43:08.636Z,13.60
2019-02-28T00:45:37.415Z,11.57
2019-02-28T00:48:05.991Z,10.53
2019-02-28T00:50:34.488Z,11.73
2019-02-28T00:53:02.960Z,10.77
2019-02-28T00:55:31.469Z,11.57
2019-02-28T00:57:59.999Z,12.23
2019-02-28T01:00:28.604Z,11.30
2019-02-28T01:02:58.022Z,11.60
2019-02-28T01:05:26.631Z,11.77
2019-02-28T01:07:55.231Z,11.83
2019-02-28T01:10:23.765Z,13.60
2019-02-28T01:12:54.305Z,12.97
2019-02-28T01:15:22.427Z,12.30
2019-02-28T01:17:51.065Z,14.20
2019-02-28T01:20:19.542Z,12.90
2019-02-28T01:22:48.068Z,13.10
2019-02-28T01:25:18.248Z,13.10
2019-02-28T01:27:46.710Z,12.90
2019-02-28T01:30:16.118Z,13.37
2019-02-28T01:32:49.897Z,13.10
2019-02-28T01:35:15.065Z,15.20
2019-02-28T01:37:43.527Z,13.87
2019-02-28T01:40:14.030Z,12.80
2019-02-28T01:42:42.551Z,13.57
2019-02-28T01:45:13.282Z,13.30
2019-02-28T01:47:41.756Z,14.70
2019-02-28T01:50:11.871Z,14.97
2019-02-28T01:52:44.349Z,15.60
2019-02-28T01:55:11.308Z,15.83
2019-02-28T01:57:44.138Z,15.60
2019-02-28T02:00:14.056Z,15.67
2019-02-28T02:02:42.531Z,14.80
2019-02-28T02:05:11.082Z,16.70
2019-02-28T02:07:39.608Z,18.53
2019-02-28T02:10:12.826Z,17.10
2019-02-28T02:12:41.339Z,19.10
2019-02-28T02:15:11.364Z,18.07
2019-02-28T02:17:39.884Z,17.20
2019-02-28T02:20:10.902Z,20.60
2019-02-28T02:22:40.650Z,18.77
2019-02-28T02:25:11.014Z,19.00
2019-02-28T02:27:39.482Z,19.47
2019-02-28T02:30:15.097Z,20.33
2019-02-28T02:32:41.358Z,21.37
2019-02-28T02:35:09.980Z,19.93
2019-02-28T02:37:38.450Z,21.00
2019-02-28T02:40:09.968Z,22.60
2019-02-28T02:42:47.247Z,20.50
2019-02-28T02:45:12.105Z,22.77
2019-02-28T02:47:40.626Z,21.50
2019-02-28T02:50:11.344Z,22.93
2019-02-28T02:52:39.806Z,23.43
2019-02-28T02:55:08.763Z,23.23
2019-02-28T02:57:37.269Z,24.37
2019-02-28T03:00:17.026Z,26.70
2019-02-28T03:02:45.651Z,24.23
2019-02-28T03:05:14.861Z,23.80
2019-02-28T03:07:43.387Z,21.13
2019-02-28T03:10:19.726Z,24.30
2019-02-28T03:12:48.281Z,25.17
2019-02-28T03:15:24.922Z,24.70
2019-02-28T03:17:48.864Z,26.00
2019-02-28T03:20:17.825Z,26.43
2019-02-28T03:22:46.622Z,25.50
2019-02-28T03:25:16.227Z,26.07
2019-02-28T03:27:44.708Z,26.90
2019-02-28T03:30:26.197Z,26.17
2019-02-28T03:32:46.617Z,27.70
2019-02-28T03:35:15.206Z,26.43
2019-02-28T03:37:43.748Z,28.07
2019-02-28T03:40:13.517Z,27.20
2019-02-28T03:42:42.047Z,27.03
2019-02-28T03:45:15.149Z,25.07
2019-02-28T03:47:43.692Z,26.73
2019-02-28T03:50:13.191Z,26.67
2019-02-28T03:52:43.766Z,27.70
2019-02-28T03:55:13.892Z,28.77
2019-02-28T03:57:42.620Z,27.57
2019-02-28T04:00:17.001Z,30.00
2019-02-28T04:02:45.526Z,28.40
2019-02-28T04:05:13.998Z,30.37
2019-02-28T04:07:42.542Z,27.57
2019-02-28T04:10:16.770Z,27.60
2019-02-28T04:12:45.602Z,25.23
2019-02-28T04:15:17.891Z,29.27
2019-02-28T04:17:46.465Z,27.77
2019-02-28T04:20:15.045Z,28.37
2019-02-28T04:22:43.520Z,26.07
2019-02-28T04:25:12.195Z,27.10
2019-02-28T04:27:41.825Z,27.20
2019-02-28T04:30:12.622Z,27.80
2019-02-28T04:32:41.174Z,26.67
2019-02-28T04:35:09.871Z,28.57
2019-02-28T04:37:44.889Z,27.80
2019-02-28T04:40:11.411Z,27.53
2019-02-28T04:42:39.906Z,27.90
2019-02-28T04:45:10.798Z,28.03
2019-02-28T04:47:40.468Z,27.50
2019-02-28T04:50:11.311Z,28.87
2019-02-28T04:52:39.787Z,28.20
2019-02-28T04:55:09.191Z,27.83
2019-02-28T04:57:37.671Z,29.37
2019-02-28T05:00:17.139Z,28.97
2019-02-28T05:02:45.698Z,27.23
2019-02-28T05:05:14.503Z,28.27
2019-02-28T05:07:42.989Z,28.90
2019-02-28T05:10:12.147Z,28.87
2019-02-28T05:12:41.049Z,31.00
2019-02-28T05:15:12.195Z,27.33
2019-02-28T05:17:40.748Z,29.37
2019-02-28T05:20:10.802Z,29.50
2019-02-28T05:22:40.512Z,26.90
2019-02-28T05:25:10.195Z,28.40
2019-02-28T05:27:38.720Z,30.10
2019-02-28T05:30:10.278Z,27.90
2019-02-28T05:32:38.760Z,29.17
2019-02-28T05:35:07.468Z,26.60
2019-02-28T05:37:36.030Z,28.23
2019-02-28T05:40:07.792Z,28.37
2019-02-28T05:42:36.352Z,28.33
2019-02-28T05:45:06.366Z,28.37
2019-02-28T05:47:45.825Z,28.10
2019-02-28T05:50:07.158Z,31.43
2019-02-28T05:52:35.684Z,29.97
2019-02-28T05:55:04.414Z,30.90
2019-02-28T05:57:32.937Z,32.60
2019-02-28T06:00:02.883Z,31.70
2019-02-28T06:02:31.475Z,30.10
2019-02-28T06:04:59.952Z,31.13
2019-02-28T06:07:28.698Z,29.80
2019-02-28T06:09:58.090Z,30.90
2019-02-28T06:12:27.571Z,33.17
2019-02-28T06:15:02.192Z,30.67
2019-02-28T06:17:26.313Z,30.17
2019-02-28T06:19:54.924Z,33.97
2019-02-28T06:22:23.456Z,31.83
2019-02-28T06:24:51.996Z,32.57
2019-02-28T06:27:20.481Z,32.37
2019-02-28T06:29:48.968Z,34.37
2019-02-28T06:32:23.229Z,31.97
2019-02-28T06:34:47.676Z,33.87
2019-02-28T06:37:16.212Z,33.30
2019-02-28T06:39:44.713Z,32.00
2019-02-28T06:42:13.646Z,31.97
2019-02-28T06:44:42.143Z,31.60
2019-02-28T06:47:11.276Z,31.40
2019-02-28T06:49:41.982Z,31.80
2019-02-28T06:52:10.758Z,33.80
2019-02-28T06:54:40.158Z,34.60
2019-02-28T06:57:09.435Z,33.87
2019-02-28T06:59:39.129Z,34.77
2019-02-28T07:02:08.994Z,33.00
2019-02-28T07:04:37.674Z,32.70
2019-02-28T07:07:07.383Z,30.50
2019-02-28T07:09:37.241Z,34.57
2019-02-28T07:12:05.811Z,33.00
2019-02-28T07:14:34.349Z,33.37
2019-02-28T07:17:02.810Z,36.13
2019-02-28T07:19:31.280Z,34.33
2019-02-28T07:21:59.760Z,32.03
2019-02-28T07:24:28.241Z,35.67
2019-02-28T07:26:56.705Z,35.43
2019-02-28T07:29:25.216Z,36.00
2019-02-28T07:31:59.785Z,32.77
2019-02-28T07:34:24.053Z,35.07
2019-02-28T07:36:52.501Z,33.63
2019-02-28T07:39:20.985Z,31.90
2019-02-28T07:41:49.455Z,32.73
2019-02-28T07:44:21.006Z,33.90
2019-02-28T07:46:48.130Z,33.90
2019-02-28T07:49:16.666Z,34.73
2019-02-28T07:51:45.199Z,32.70
2019-02-28T07:54:15.868Z,33.83
2019-02-28T07:56:44.305Z,33.53
2019-02-28T07:59:13.111Z,35.00
2019-02-28T08:01:41.581Z,35.27
2019-02-28T08:04:10.112Z,33.87
2019-02-28T08:06:39.340Z,33.13
2019-02-28T08:09:12.007Z,34.50
2019-02-28T08:11:40.496Z,35.70
2019-02-28T08:14:09.215Z,37.07
2019-02-28T08:16:37.901Z,34.70
2019-02-28T08:19:06.387Z,35.43
2019-02-28T08:21:35.950Z,34.70
2019-02-28T08:24:07.119Z,35.30
2019-02-28T08:26:35.672Z,35.70
2019-02-28T08:29:04.130Z,36.17
2019-02-28T08:31:33.048Z,34.07
2019-02-28T08:34:01.645Z,36.60
2019-02-28T08:36:30.109Z,34.10
2019-02-28T08:38:58.575Z,35.10
2019-02-28T08:41:27.051Z,36.10
2019-02-28T08:43:55.536Z,36.43
2019-02-28T08:46:24.108Z,34.63
2019-02-28T08:48:52.668Z,34.40
2019-02-28T08:51:23.044Z,38.37
2019-02-28T08:53:52.174Z,34.70
2019-02-28T08:56:20.804Z,34.63
2019-02-28T08:58:49.279Z,35.93
2019-02-28T09:01:17.765Z,34.70
2019-02-28T09:03:46.280Z,35.67
2019-02-28T09:06:14.816Z,34.33
2019-02-28T09:08:43.427Z,35.13
2019-02-28T09:11:12.078Z,35.50
2019-02-28T09:13:43.019Z,37.53
2019-02-28T09:16:10.777Z,35.37
2019-02-28T09:18:39.251Z,37.33
2019-02-28T09:21:07.768Z,34.17
2019-02-28T09:23:37.579Z,36.07
2019-02-28T09:26:06.500Z,33.93
2019-02-28T09:28:35.057Z,34.87
2019-02-28T09:31:04.940Z,34.90
2019-02-28T09:33:33.731Z,35.43
2019-02-28T09:36:02.208Z,35.63
2019-02-28T09:38:30.792Z,35.30
2019-02-28T09:41:01.346Z,34.40
2019-02-28T09:43:29.491Z,34.30
2019-02-28T09:45:58.128Z,35.60
2019-02-28T09:48:26.716Z,33.70
2019-02-28T09:50:58.262Z,34.50
2019-02-28T09:53:25.422Z,35.83
2019-02-28T09:55:53.906Z,34.13
2019-02-28T09:58:22.371Z,34.90
2019-02-28T10:00:50.911Z,35.60
2019-02-28T10:03:19.570Z,33.30
2019-02-28T10:05:48.382Z,35.87
2019-02-28T10:08:16.877Z,32.97
2019-02-28T10:10:45.360Z,33.20
2019-02-28T10:13:14.578Z,33.00
2019-02-28T10:15:44.118Z,33.30
2019-02-28T10:18:12.668Z,33.90
2019-02-28T10:20:41.672Z,35.83
2019-02-28T10:23:10.192Z,34.67
2019-02-28T10:25:43.392Z,35.43
2019-02-28T10:28:08.868Z,34.63
2019-02-28T10:30:37.471Z,32.87
2019-02-28T10:33:06.073Z,34.27
2019-02-28T10:35:36.760Z,33.70
2019-02-28T10:38:04.862Z,35.40
2019-02-28T10:40:33.404Z,35.20
2019-02-28T10:43:01.872Z,34.40
2019-02-28T10:45:30.724Z,33.47
2019-02-28T10:48:02.903Z,34.20
2019-02-28T10:50:33.247Z,31.57
2019-02-28T10:53:04.583Z,34.93
2019-02-28T10:55:31.569Z,33.57
2019-02-28T10:58:00.173Z,34.57
2019-02-28T11:00:41.084Z,35.87
2019-02-28T11:03:09.760Z,35.30
2019-02-28T11:05:43.522Z,36.60
2019-02-28T11:08:19.287Z,32.80
2019-02-28T11:10:48.116Z,33.27
2019-02-28T11:13:20.168Z,34.53
2019-02-28T11:15:49.475Z,35.27
2019-02-28T11:18:18.221Z,34.00
2019-02-28T11:20:47.524Z,34.93
2019-02-28T11:23:16.741Z,32.57
2019-02-28T11:25:45.551Z,36.67
2019-02-28T11:28:15.120Z,33.30
2019-02-28T11:30:45.569Z,32.80
2019-02-28T11:33:14.946Z,37.93
2019-02-28T11:35:43.564Z,34.70
2019-02-28T11:38:12.372Z,35.50
2019-02-28T11:40:43.833Z,34.47
2019-02-28T11:43:11.235Z,33.53
2019-02-28T11:45:42.317Z,36.17
2019-02-28T11:48:18.923Z,32.90
2019-02-28T11:50:44.914Z,34.17
2019-02-28T11:53:13.664Z,33.73
2019-02-28T11:55:42.191Z,33.40
2019-02-28T11:58:16.626Z,32.50
2019-02-28T12:00:41.215Z,32.00
2019-02-28T12:03:09.725Z,32.53
2019-02-28T12:05:38.257Z,34.27
2019-02-28T12:08:10.378Z,29.10
2019-02-28T12:10:38.293Z,30.87
2019-02-28T12:13:06.934Z,30.77
2019-02-28T12:15:43.202Z,31.70
2019-02-28T12:18:11.823Z,28.63
2019-02-28T12:20:40.363Z,31.03
2019-02-28T12:23:08.835Z,31.17
2019-02-28T12:25:39.650Z,29.10
2019-02-28T12:28:07.595Z,29.90
2019-02-28T12:30:36.765Z,31.23
2019-02-28T12:33:05.366Z,29.93
2019-02-28T12:35:39.987Z,29.60
2019-02-28T12:38:04.310Z,29.40
2019-02-28T12:40:35.863Z,30.07
2019-02-28T12:43:09.748Z,29.63
2019-02-28T12:45:39.959Z,29.27
2019-02-28T12:48:08.479Z,28.90
2019-02-28T12:50:37.219Z,30.60
2019-02-28T12:53:05.904Z,30.80
2019-02-28T12:55:35.508Z,30.77
2019-02-28T12:58:04.875Z,30.83
2019-02-28T13:00:42.047Z,29.60
2019-02-28T13:03:11.090Z,32.13
2019-02-28T13:05:39.649Z,30.87
2019-02-28T13:08:08.254Z,30.53
2019-02-28T13:10:36.905Z,31.53
2019-02-28T13:13:07.323Z,31.23
2019-02-28T13:15:35.801Z,30.03
2019-02-28T13:18:09.041Z,35.27
2019-02-28T13:20:38.751Z,33.37
2019-02-28T13:23:07.378Z,33.20
2019-02-28T13:25:36.000Z,31.00
2019-02-28T13:28:06.012Z,33.00
2019-02-28T13:30:34.880Z,31.70
2019-02-28T13:33:03.344Z,31.90
2019-02-28T13:35:34.217Z,31.37
2019-02-28T13:38:02.764Z,33.40
2019-02-28T13:40:31.359Z,30.30
2019-02-28T13:43:01.733Z,28.80
2019-02-28T13:45:30.103Z,29.13
2019-02-28T13:47:58.721Z,30.07
2019-02-28T13:50:32.817Z,29.73
2019-02-28T13:53:02.455Z,29.90
2019-02-28T13:55:31.914Z,28.13
2019-02-28T13:58:00.444Z,29.77
2019-02-28T14:00:33.659Z,29.90
2019-02-28T14:03:09.132Z,34.10
2019-02-28T14:05:39.267Z,30.27
2019-02-28T14:08:09.850Z,33.27
2019-02-28T14:10:35.468Z,30.00
2019-02-28T14:13:04.413Z,32.63
2019-02-28T14:15:52.506Z,30.33
2019-02-28T14:18:20.078Z,28.77
2019-02-28T14:20:49.194Z,29.20
2019-02-28T14:23:20.732Z,30.20
2019-02-28T14:25:48.315Z,31.90
2019-02-28T14:28:16.943Z,33.00
2019-02-28T14:30:45.405Z,31.60
2019-02-28T14:33:16.180Z,32.07
2019-02-28T14:35:44.155Z,34.20
2019-02-28T14:38:12.794Z,31.50
2019-02-28T14:40:41.312Z,31.10
2019-02-28T14:43:09.784Z,30.67
2019-02-28T14:45:45.853Z,30.17
2019-02-28T14:48:14.471Z,31.70
2019-02-28T14:50:43.042Z,32.33
2019-02-28T14:53:14.373Z,29.83
2019-02-28T14:55:41.736Z,29.60
2019-02-28T14:58:10.212Z,30.93
2019-02-28T15:00:42.288Z,29.30
2019-02-28T15:03:09.689Z,27.13
2019-02-28T15:05:42.883Z,28.10
2019-02-28T15:08:11.988Z,27.87
2019-02-28T15:10:42.588Z,25.93
2019-02-28T15:13:11.128Z,26.90
2019-02-28T15:15:39.655Z,27.57
2019-02-28T15:18:10.932Z,26.77
2019-02-28T15:20:38.564Z,26.87
2019-02-28T15:23:07.187Z,25.97
2019-02-28T15:25:35.729Z,29.70
2019-02-28T15:28:04.234Z,29.90
2019-02-28T15:30:37.679Z,27.40
2019-02-28T15:33:06.235Z,25.90
2019-02-28T15:35:34.764Z,27.67
2019-02-28T15:38:05.870Z,28.20
2019-02-28T15:40:44.293Z,29.10
2019-02-28T15:43:16.970Z,27.43
2019-02-28T15:45:43.045Z,29.20
2019-02-28T15:48:11.514Z,28.60
2019-02-28T15:50:39.995Z,27.60
2019-02-28T15:53:11.238Z,25.47
2019-02-28T15:55:38.993Z,28.97
2019-02-28T15:58:07.479Z,29.97
2019-02-28T16:00:36.882Z,29.17
2019-02-28T16:03:05.725Z,28.13
2019-02-28T16:05:34.283Z,28.40
2019-02-28T16:08:09.008Z,30.80
2019-02-28T16:10:34.444Z,28.17
2019-02-28T16:13:04.541Z,31.67
2019-02-28T16:15:33.104Z,28.77
2019-02-28T16:18:01.636Z,28.87
2019-02-28T16:20:31.958Z,28.13
2019-02-28T16:23:00.422Z,30.33
2019-02-28T16:25:39.178Z,31.23
2019-02-28T16:28:08.961Z,29.87
2019-02-28T16:30:39.176Z,30.03
2019-02-28T16:33:07.878Z,29.90
2019-02-28T16:35:36.420Z,30.80
2019-02-28T16:38:06.424Z,29.90
2019-02-28T16:40:35.310Z,30.47
2019-02-28T16:43:04.064Z,29.97
2019-02-28T16:45:37.404Z,31.70
2019-02-28T16:48:08.046Z,29.27
2019-02-28T16:50:36.666Z,29.87
2019-02-28T16:53:05.340Z,29.57
2019-02-28T16:55:33.918Z,31.33
2019-02-28T16:58:03.671Z,28.27
2019-02-28T17:00:32.244Z,31.47
2019-02-28T17:03:00.738Z,31.80
2019-02-28T17:05:30.410Z,29.07
2019-02-28T17:07:58.892Z,30.90
2019-02-28T17:10:29.078Z,30.40
2019-02-28T17:13:11.120Z,31.40
2019-02-28T17:15:45.519Z,30.40
2019-02-28T17:18:21.475Z,31.87
2019-02-28T17:20:48.860Z,31.03
2019-02-28T17:23:18.702Z,28.63
2019-02-28T17:25:47.448Z,29.87
2019-02-28T17:28:29.664Z,30.37
2019-02-28T17:31:08.422Z,30.87
2019-02-28T17:33:36.242Z,33.17
2019-02-28T17:36:08.317Z,30.83
2019-02-28T17:38:37.322Z,31.17
2019-02-28T17:41:05.335Z,31.97
2019-02-28T17:43:36.929Z,29.90
2019-02-28T17:46:06.119Z,32.60
2019-02-28T17:48:52.473Z,31.43
2019-02-28T17:51:28.815Z,31.20
2019-02-28T17:54:00.416Z,32.47
2019-02-28T17:56:46.999Z,30.57
2019-02-28T17:59:30.361Z,30.90
2019-02-28T18:02:18.895Z,28.80
2019-02-28T18:05:06.900Z,29.73
2019-02-28T18:08:01.411Z,28.70
2019-02-28T18:10:38.655Z,32.83
2019-02-28T18:13:10.200Z,30.70
2019-02-28T18:15:51.447Z,32.33
2019-02-28T18:18:28.938Z,34.27
2019-02-28T18:21:17.379Z,34.30
2019-02-28T18:24:04.047Z,32.37
2019-02-28T18:27:08.417Z,31.73
2019-02-28T18:29:56.650Z,36.07
2019-02-28T18:32:25.198Z,34.07
2019-02-28T18:34:56.242Z,32.33
2019-02-28T18:37:25.447Z,34.30
2019-02-28T18:39:54.088Z,35.40
2019-02-28T18:42:22.585Z,33.60
2019-02-28T18:44:51.137Z,33.40
2019-02-28T18:47:19.700Z,34.50
2019-02-28T18:49:48.224Z,35.10
2019-02-28T18:52:18.022Z,34.50
2019-02-28T18:54:46.657Z,33.17
2019-02-28T18:57:15.145Z,33.87
2019-02-28T18:59:43.649Z,31.93
2019-02-28T19:02:12.205Z,32.80
2019-02-28T19:04:40.663Z,31.90
2019-02-28T19:07:09.145Z,33.93
2019-02-28T19:09:37.644Z,34.30
2019-02-28T19:12:06.251Z,33.13
2019-02-28T19:14:34.862Z,32.10
2019-02-28T19:17:03.339Z,35.20
2019-02-28T19:19:31.807Z,32.57
2019-02-28T19:22:00.297Z,35.17
2019-02-28T19:24:30.977Z,35.60
2019-02-28T19:26:59.455Z,34.13
2019-02-28T19:29:27.943Z,32.40
2019-02-28T19:31:56.481Z,30.30
2019-02-28T19:34:25.000Z,33.90
2019-02-28T19:42:50.763Z,34.90
2019-02-28T19:45:34.441Z,38.80
2019-02-28T19:48:03.225Z,34.10
2019-02-28T19:50:31.817Z,37.07
2019-02-28T19:53:12.998Z,33.87
2019-02-28T19:55:48.807Z,35.60
2019-02-28T19:58:17.400Z,35.77
2019-02-28T20:00:46.036Z,35.27
2019-02-28T20:03:14.745Z,34.87
2019-02-28T20:05:43.217Z,38.83
2019-02-28T20:08:11.699Z,37.40
2019-02-28T20:10:40.474Z,36.27
2019-02-28T20:13:09.033Z,37.33
2019-02-28T20:15:39.130Z,40.87
2019-02-28T20:18:10.579Z,38.87
2019-02-28T20:20:39.267Z,36.23
2019-02-28T20:23:07.917Z,37.10
2019-02-28T20:25:36.853Z,42.00
2019-02-28T20:28:05.396Z,40.10
2019-02-28T20:30:35.522Z,43.87
2019-02-28T20:33:04.897Z,42.43
2019-02-28T20:35:33.857Z,41.40
2019-02-28T20:38:03.043Z,41.43
2019-02-28T20:40:36.529Z,42.07
2019-02-28T20:43:05.093Z,43.00
2019-02-28T20:45:33.809Z,44.23
2019-02-28T20:48:04.182Z,44.97
2019-02-28T20:50:38.465Z,45.67
2019-02-28T20:53:07.096Z,45.77
2019-02-28T20:55:37.676Z,44.60
2019-02-28T20:58:06.268Z,44.60
2019-02-28T21:00:34.955Z,45.70
2019-02-28T21:03:05.211Z,48.00
2019-02-28T21:05:33.754Z,45.10
2019-02-28T21:08:13.192Z,46.87
2019-02-28T21:10:41.843Z,45.00
2019-02-28T21:13:10.398Z,45.27
2019-02-28T21:15:38.878Z,40.77
2019-02-28T21:18:09.014Z,44.00
2019-02-28T21:20:38.813Z,44.00
2019-02-28T21:23:07.494Z,50.07
2019-02-28T21:25:36.046Z,48.13
2019-02-28T21:28:04.902Z,45.70
2019-02-28T21:30:33.506Z,45.10
2019-02-28T21:33:02.002Z,43.57
2019-02-28T21:35:30.559Z,43.50
2019-02-28T21:37:59.206Z,43.70
2019-02-28T21:40:28.109Z,44.20
2019-02-28T21:42:56.678Z,43.87
2019-02-28T21:45:26.448Z,45.80
2019-02-28T21:47:55.043Z,44.27
2019-02-28T21:50:23.815Z,48.10
2019-02-28T21:52:52.637Z,45.27
2019-02-28T21:55:21.173Z,44.70
2019-02-28T21:57:49.782Z,44.30
2019-02-28T22:00:26.639Z,45.37
2019-02-28T22:02:58.364Z,44.20
2019-02-28T22:05:26.848Z,44.03
2019-02-28T22:07:55.351Z,44.57
2019-02-28T22:10:23.886Z,46.37
2019-02-28T22:12:52.648Z,44.97
2019-02-28T22:15:22.450Z,47.70
2019-02-28T22:17:51.055Z,45.17
2019-02-28T22:20:19.523Z,45.63
2019-02-28T22:22:50.154Z,43.07
2019-02-28T22:25:18.633Z,42.77
2019-02-28T22:27:47.176Z,43.70
2019-02-28T22:30:43.470Z,42.00
2019-02-28T22:33:29.752Z,40.37
2019-02-28T22:36:12.056Z,41.73
2019-02-28T22:38:40.606Z,38.97
2019-02-28T22:41:09.184Z,38.77
2019-02-28T22:43:37.718Z,36.73
2019-02-28T22:46:06.200Z,36.67
2019-02-28T22:48:34.671Z,37.50
2019-02-28T22:51:03.138Z,34.90
2019-02-28T22:53:31.840Z,36.43
2019-02-28T22:56:00.376Z,34.73
2019-02-28T22:58:28.844Z,32.70
2019-02-28T23:01:02.055Z,28.77
2019-02-28T23:03:32.405Z,27.90
2019-02-28T23:06:00.994Z,27.87
2019-02-28T23:08:29.539Z,27.70
2019-02-28T23:10:58.430Z,28.27
2019-02-28T23:13:27.446Z,28.80
2019-02-28T23:18:48.561Z,26.10
2019-02-28T23:21:22.195Z,28.00
2019-02-28T23:47:36.735Z,22.70
2019-02-28T23:50:09.551Z,26.03
2019-02-28T23:56:04.507Z,24.27
2019-02-28T23:58:38.095Z,26.47
